Time;durP1;ratioP1;P1;durP2;ratioP2;P2;SDS_P1;SDS_P2;PMS_P1;PMS_P2;Temp;Humidity;BMP_temperature;BMP_pressure;BME280_temperature;BME280_humidity;BME280_pressure;Samples;Min_cycle;Max_cycle;Signal;HPM_P1;HPM_P2
2021/08/23 00:00:54;0.00;0.00;0.62;0.00;0.00;0.62;2.80;2.30;;;26.80;41.50;;;;;;2249708;61;20492;-63
2021/08/23 00:03:38;0.00;0.00;0.62;0.00;0.00;0.62;3.47;2.97;;;26.80;41.50;;;;;;2250089;61;20365;-62
2021/08/23 00:06:24;0.00;0.00;0.62;0.00;0.00;0.62;3.00;2.60;;;26.80;41.50;;;;;;2249652;61;20404;-61
2021/08/23 00:09:09;0.00;0.00;0.62;0.00;0.00;0.62;3.37;2.90;;;26.80;41.40;;;;;;2249628;61;20379;-60
2021/08/23 00:11:53;0.00;0.00;0.62;0.00;0.00;0.62;3.60;3.00;;;26.80;41.40;;;;;;2250144;61;20365;-60
2021/08/23 00:14:38;0.00;0.00;0.62;0.00;0.00;0.62;3.40;2.83;;;26.80;41.40;;;;;;2249459;61;20364;-64
2021/08/23 00:17:23;0.00;0.00;0.62;0.00;0.00;0.62;4.00;3.10;;;26.80;41.30;;;;;;2249694;61;20603;-62
2021/08/23 00:20:10;0.00;0.00;0.62;0.00;0.00;0.62;3.13;2.83;;;26.80;41.20;;;;;;2250168;61;20365;-63
2021/08/23 00:22:57;0.00;0.00;0.62;0.00;0.00;0.62;3.13;2.80;;;26.80;41.10;;;;;;2249584;61;20376;-62
2021/08/23 00:25:41;0.00;0.00;0.62;0.00;0.00;0.62;3.80;3.40;;;26.80;41.10;;;;;;2249889;61;20388;-61
2021/08/23 00:28:26;0.00;0.00;0.62;0.00;0.00;0.62;3.87;3.47;;;26.90;41.20;;;;;;2249282;61;20752;-62
2021/08/23 00:31:11;0.00;0.00;0.62;0.00;0.00;0.62;3.97;3.00;;;26.80;41.80;;;;;;2249484;61;20412;-62
2021/08/23 00:33:55;0.00;0.00;0.62;0.00;0.00;0.62;4.10;2.73;;;26.80;41.10;;;;;;2249947;61;20357;-62
2021/08/23 00:36:40;0.00;0.00;0.62;0.00;0.00;0.62;3.60;3.17;;;26.80;41.80;;;;;;2249294;61;20369;-59
2021/08/23 00:39:26;0.00;0.00;0.62;0.00;0.00;0.62;3.97;3.00;;;26.90;41.20;;;;;;2249686;61;20720;-61
2021/08/23 00:42:11;0.00;0.00;0.62;0.00;0.00;0.62;5.80;3.47;;;26.80;41.10;;;;;;2250245;61;20443;-60
2021/08/23 00:44:55;0.00;0.00;0.62;0.00;0.00;0.62;3.40;3.10;;;26.80;41.10;;;;;;2249492;61;20436;-64
2021/08/23 00:47:40;0.00;0.00;0.62;0.00;0.00;0.62;4.40;3.30;;;26.80;41.10;;;;;;2249434;61;20392;-59
2021/08/23 00:50:25;0.00;0.00;0.62;0.00;0.00;0.62;3.00;2.70;;;26.80;41.10;;;;;;2249304;61;20372;-61
2021/08/23 00:53:09;0.00;0.00;0.62;0.00;0.00;0.62;3.43;2.90;;;26.80;41.10;;;;;;2249313;61;20446;-60
2021/08/23 00:55:55;0.00;0.00;0.62;0.00;0.00;0.62;4.03;3.37;;;26.80;41.10;;;;;;2249901;61;20365;-62
2021/08/23 00:58:41;0.00;0.00;0.62;0.00;0.00;0.62;3.20;2.83;;;26.80;41.10;;;;;;2249398;61;20409;-61
2021/08/23 01:01:33;0.00;0.00;0.62;0.00;0.00;0.62;3.20;2.90;;;26.80;41.10;;;;;;2249611;61;20395;-62
2021/08/23 01:04:29;0.00;0.00;0.62;0.00;0.00;0.62;2.90;2.70;;;26.80;41.10;;;;;;2249958;61;20622;-62
2021/08/23 01:07:15;0.00;0.00;0.62;0.00;0.00;0.62;3.50;3.20;;;26.80;41.10;;;;;;2249139;61;20517;-62
2021/08/23 01:10:09;0.00;0.00;0.62;0.00;0.00;0.62;4.17;3.20;;;26.70;41.00;;;;;;2249423;61;20416;-59
2021/08/23 01:12:57;0.00;0.00;0.62;0.00;0.00;0.62;3.13;2.80;;;26.70;41.00;;;;;;2249541;61;20446;-61
2021/08/23 01:15:43;0.00;0.00;0.62;0.00;0.00;0.62;3.70;3.40;;;26.70;41.00;;;;;;2249535;61;20404;-61
2021/08/23 01:18:29;0.00;0.00;0.62;0.00;0.00;0.62;3.60;2.70;;;26.70;41.00;;;;;;2249931;61;20598;-62
2021/08/23 01:21:18;0.00;0.00;0.62;0.00;0.00;0.62;2.70;2.50;;;26.70;41.00;;;;;;2249215;61;20392;-63
2021/08/23 01:24:07;0.00;0.00;0.62;0.00;0.00;0.62;3.63;3.10;;;26.70;41.00;;;;;;2249584;61;20581;-59
2021/08/23 01:26:53;0.00;0.00;0.62;0.00;0.00;0.62;3.83;2.80;;;26.60;41.00;;;;;;2249652;61;20576;-62
2021/08/23 01:29:56;0.00;0.00;0.62;0.00;0.00;0.62;3.10;2.80;;;26.60;41.00;;;;;;2249413;61;20469;-63
2021/08/23 01:32:42;0.00;0.00;0.62;0.00;0.00;0.62;4.03;2.90;;;26.50;40.90;;;;;;2249369;61;20423;-63
2021/08/23 01:35:27;0.00;0.00;0.62;0.00;0.00;0.62;3.97;3.40;;;26.60;41.00;;;;;;2249517;61;20709;-62
2021/08/23 01:38:13;0.00;0.00;0.62;0.00;0.00;0.62;4.30;2.60;;;26.50;40.90;;;;;;2249501;61;20403;-64
2021/08/23 01:40:59;0.00;0.00;0.62;0.00;0.00;0.62;4.63;3.20;;;26.50;40.90;;;;;;2249906;61;21311;-62
2021/08/23 01:43:44;0.00;0.00;0.62;0.00;0.00;0.62;5.00;4.00;;;26.50;40.90;;;;;;2249185;61;20357;-65
2021/08/23 01:46:30;0.00;0.00;0.62;0.00;0.00;0.62;4.73;3.60;;;26.50;40.90;;;;;;2249453;61;20724;-61
2021/08/23 01:49:16;0.00;0.00;0.62;0.00;0.00;0.62;4.23;3.67;;;26.50;40.90;;;;;;2249748;61;20381;-63
2021/08/23 01:52:00;0.00;0.00;0.62;0.00;0.00;0.62;4.83;3.97;;;26.50;40.90;;;;;;2249204;61;20373;-62
2021/08/23 01:54:45;0.00;0.00;0.62;0.00;0.00;0.62;5.50;4.30;;;26.40;40.80;;;;;;2249714;61;20369;-60
2021/08/23 01:57:30;0.00;0.00;0.62;0.00;0.00;0.62;4.87;4.40;;;26.40;40.80;;;;;;2249242;61;20384;-63
2021/08/23 02:00:16;0.00;0.00;0.62;0.00;0.00;0.62;4.00;3.60;;;26.40;40.80;;;;;;2249172;61;20356;-62
2021/08/23 02:03:01;0.00;0.00;0.62;0.00;0.00;0.62;4.43;3.37;;;26.40;40.80;;;;;;2249749;61;20432;-63
2021/08/23 02:05:46;0.00;0.00;0.62;0.00;0.00;0.62;5.03;3.60;;;26.30;40.80;;;;;;2249089;61;20720;-60
2021/08/23 02:08:31;0.00;0.00;0.62;0.00;0.00;0.62;4.73;3.67;;;26.30;40.80;;;;;;2249342;61;20396;-60
2021/08/23 02:11:17;0.00;0.00;0.62;0.00;0.00;0.62;4.40;3.33;;;26.30;40.80;;;;;;2249013;61;20643;-64
2021/08/23 02:14:02;0.00;0.00;0.62;0.00;0.00;0.62;5.03;3.90;;;26.30;40.80;;;;;;2249282;61;20375;-61
2021/08/23 02:16:46;0.00;0.00;0.62;0.00;0.00;0.62;3.90;3.10;;;26.30;40.80;;;;;;2249568;61;20428;-59
2021/08/23 02:19:31;0.00;0.00;0.62;0.00;0.00;0.62;3.77;3.37;;;26.30;40.80;;;;;;2249396;61;20389;-62
2021/08/23 02:22:17;0.00;0.00;0.62;0.00;0.00;0.62;4.50;3.20;;;26.20;40.70;;;;;;2248764;61;20365;-61
2021/08/23 02:25:04;0.00;0.00;0.62;0.00;0.00;0.62;3.03;2.77;;;26.20;40.70;;;;;;2249599;61;20703;-62
2021/08/23 02:27:49;0.00;0.00;0.62;0.00;0.00;0.62;2.97;2.67;;;26.20;40.70;;;;;;2248999;61;20637;-61
2021/08/23 02:30:34;0.00;0.00;0.62;0.00;0.00;0.62;4.53;3.57;;;26.20;40.70;;;;;;2249266;61;20363;-60
2021/08/23 02:33:19;0.00;0.00;0.62;0.00;0.00;0.62;3.17;2.70;;;26.20;40.70;;;;;;2249704;61;20379;-62
2021/08/23 02:36:04;0.00;0.00;0.62;0.00;0.00;0.62;4.63;2.73;;;26.20;40.70;;;;;;2249019;61;20388;-60
2021/08/23 02:38:50;0.00;0.00;0.62;0.00;0.00;0.62;2.90;2.60;;;26.20;40.70;;;;;;2249540;61;20427;-60
2021/08/23 02:41:34;0.00;0.00;0.62;0.00;0.00;0.62;3.70;2.47;;;26.10;40.60;;;;;;2249450;61;20727;-60
2021/08/23 02:44:19;0.00;0.00;0.62;0.00;0.00;0.62;5.33;2.87;;;26.10;40.60;;;;;;2249095;61;20400;-61
2021/08/23 02:47:03;0.00;0.00;0.62;0.00;0.00;0.62;3.50;2.40;;;26.10;40.60;;;;;;2249392;61;20384;-61
2021/08/23 02:49:48;0.00;0.00;0.62;0.00;0.00;0.62;3.60;3.30;;;26.10;40.60;;;;;;2249007;61;20352;-61
2021/08/23 02:52:32;0.00;0.00;0.62;0.00;0.00;0.62;3.43;2.67;;;26.10;40.60;;;;;;2249168;61;20689;-61
2021/08/23 02:55:18;0.00;0.00;0.62;0.00;0.00;0.62;3.33;2.53;;;26.10;40.60;;;;;;2249576;61;20368;-62
2021/08/23 02:58:03;0.00;0.00;0.62;0.00;0.00;0.62;3.30;2.80;;;26.10;40.60;;;;;;2248968;61;20384;-62
2021/08/23 03:00:47;0.00;0.00;0.62;0.00;0.00;0.62;4.63;2.87;;;26.10;40.70;;;;;;2249267;61;20384;-60
2021/08/23 03:03:34;0.00;0.00;0.62;0.00;0.00;0.62;2.93;2.37;;;26.00;40.60;;;;;;2249305;61;20577;-60
2021/08/23 03:06:19;0.00;0.00;0.62;0.00;0.00;0.62;2.93;2.63;;;26.00;40.70;;;;;;2248858;61;20441;-60
2021/08/23 03:09:03;0.00;0.00;0.62;0.00;0.00;0.62;3.80;2.73;;;26.00;40.70;;;;;;2249595;61;20422;-62
2021/08/23 03:11:49;0.00;0.00;0.62;0.00;0.00;0.62;2.77;2.30;;;26.00;40.70;;;;;;2250199;61;20422;-60
2021/08/23 03:14:34;0.00;0.00;0.62;0.00;0.00;0.62;3.23;2.63;;;26.00;40.70;;;;;;2250330;61;20585;-61
2021/08/23 03:17:20;0.00;0.00;0.62;0.00;0.00;0.62;3.20;2.90;;;26.00;40.70;;;;;;2250926;61;20428;-60
2021/08/23 03:20:06;0.00;0.00;0.62;0.00;0.00;0.62;3.43;2.77;;;26.00;40.70;;;;;;2250293;61;20392;-63
2021/08/23 03:22:50;0.00;0.00;0.62;0.00;0.00;0.62;4.50;3.00;;;26.00;40.80;;;;;;2250491;61;20368;-61
2021/08/23 03:25:35;0.00;0.00;0.62;0.00;0.00;0.62;3.00;2.50;;;25.90;41.30;;;;;;2250960;61;20432;-61
2021/08/23 03:28:21;0.00;0.00;0.62;0.00;0.00;0.62;3.20;2.87;;;25.90;40.70;;;;;;2250265;61;20388;-58
2021/08/23 03:31:06;0.00;0.00;0.62;0.00;0.00;0.62;2.83;2.43;;;25.90;40.80;;;;;;2250776;61;20368;-56
2021/08/23 03:33:51;0.00;0.00;0.62;0.00;0.00;0.62;3.37;3.07;;;25.90;40.80;;;;;;2250542;61;20363;-61
2021/08/23 03:36:35;0.00;0.00;0.62;0.00;0.00;0.62;5.83;3.50;;;25.90;40.80;;;;;;2250260;61;20361;-59
2021/08/23 03:39:20;0.00;0.00;0.62;0.00;0.00;0.62;5.53;2.97;;;25.90;40.80;;;;;;2251093;61;20363;-59
2021/08/23 03:42:05;0.00;0.00;0.62;0.00;0.00;0.62;3.80;3.27;;;25.80;40.80;;;;;;2250262;61;20709;-63
2021/08/23 03:44:51;0.00;0.00;0.62;0.00;0.00;0.62;2.93;2.60;;;25.80;40.90;;;;;;2250483;61;20408;-61
2021/08/23 03:47:35;0.00;0.00;0.62;0.00;0.00;0.62;3.33;2.77;;;25.80;41.00;;;;;;2250581;61;20384;-60
2021/08/23 03:50:21;0.00;0.00;0.62;0.00;0.00;0.62;2.90;2.57;;;25.80;41.00;;;;;;2250135;61;20371;-61
2021/08/23 03:53:06;0.00;0.00;0.62;0.00;0.00;0.62;3.77;2.90;;;25.80;41.00;;;;;;2250689;61;20360;-62
2021/08/23 03:55:50;0.00;0.00;0.62;0.00;0.00;0.62;4.13;3.33;;;25.80;41.10;;;;;;2250340;61;20389;-60
2021/08/23 03:58:35;0.00;0.00;0.62;0.00;0.00;0.62;3.33;3.03;;;25.80;41.10;;;;;;2250287;61;20407;-61
2021/08/23 04:01:21;0.00;0.00;0.62;0.00;0.00;0.62;3.13;2.83;;;25.80;41.10;;;;;;2250935;61;20727;-62
2021/08/23 04:04:06;0.00;0.00;0.62;0.00;0.00;0.62;3.60;2.90;;;25.80;41.10;;;;;;2250169;61;20427;-63
2021/08/23 04:06:51;0.00;0.00;0.62;0.00;0.00;0.62;4.13;3.10;;;25.70;41.00;;;;;;2250194;61;20631;-63
2021/08/23 04:09:35;0.00;0.00;0.62;0.00;0.00;0.62;3.57;3.00;;;25.70;41.00;;;;;;2250694;61;20397;-61
2021/08/23 04:12:20;0.00;0.00;0.62;0.00;0.00;0.62;3.30;3.00;;;25.70;41.00;;;;;;2250125;61;20665;-60
2021/08/23 04:15:06;0.00;0.00;0.62;0.00;0.00;0.62;3.83;2.90;;;25.70;41.00;;;;;;2250701;61;20416;-60
2021/08/23 04:17:52;0.00;0.00;0.62;0.00;0.00;0.62;5.63;3.53;;;25.70;41.00;;;;;;2250253;61;20595;-57
2021/08/23 04:20:37;0.00;0.00;0.62;0.00;0.00;0.62;4.83;3.00;;;25.70;41.00;;;;;;2250138;61;20494;-61
2021/08/23 04:23:21;0.00;0.00;0.62;0.00;0.00;0.62;3.70;3.00;;;25.70;41.10;;;;;;2250092;61;20364;-63
2021/08/23 04:26:06;0.00;0.00;0.62;0.00;0.00;0.62;6.20;2.90;;;25.70;41.10;;;;;;2249281;61;20359;-66
2021/08/23 04:28:50;0.00;0.00;0.62;0.00;0.00;0.62;2.83;2.50;;;25.60;41.00;;;;;;2249674;61;20432;-61
2021/08/23 04:31:35;0.00;0.00;0.62;0.00;0.00;0.62;3.20;2.90;;;25.60;41.10;;;;;;2249888;61;20365;-60
2021/08/23 04:34:21;0.00;0.00;0.62;0.00;0.00;0.62;3.80;3.40;;;25.60;41.10;;;;;;2249374;61;20364;-59
2021/08/23 04:37:05;0.00;0.00;0.62;0.00;0.00;0.62;3.93;3.23;;;25.60;41.10;;;;;;2249318;61;20384;-59
2021/08/23 04:39:50;0.00;0.00;0.62;0.00;0.00;0.62;3.90;3.47;;;25.60;41.20;;;;;;2249553;61;20369;-62
2021/08/23 04:42:35;0.00;0.00;0.62;0.00;0.00;0.62;3.40;2.77;;;25.60;41.20;;;;;;2249472;61;20392;-63
2021/08/23 04:45:19;0.00;0.00;0.62;0.00;0.00;0.62;8.13;2.67;;;25.50;41.10;;;;;;2249999;61;20716;-60
2021/08/23 04:48:05;0.00;0.00;0.62;0.00;0.00;0.62;5.47;2.77;;;25.50;41.20;;;;;;2248753;61;20389;-63
2021/08/23 04:50:50;0.00;0.00;0.62;0.00;0.00;0.62;3.10;2.70;;;25.50;41.20;;;;;;2249550;61;20776;-61
2021/08/23 04:53:35;0.00;0.00;0.62;0.00;0.00;0.62;3.80;2.73;;;25.50;41.20;;;;;;2249772;61;20388;-63
2021/08/23 04:56:19;0.00;0.00;0.62;0.00;0.00;0.62;3.13;2.50;;;25.50;41.30;;;;;;2249311;61;20368;-62
2021/08/23 04:59:04;0.00;0.00;0.62;0.00;0.00;0.62;3.30;3.00;;;25.50;41.40;;;;;;2249519;61;20360;-60
2021/08/23 05:01:48;0.00;0.00;0.62;0.00;0.00;0.62;3.37;3.07;;;25.50;41.40;;;;;;2249862;61;20413;-58
2021/08/23 05:04:33;0.00;0.00;0.62;0.00;0.00;0.62;5.33;3.70;;;25.50;41.40;;;;;;2249312;61;20457;-58
2021/08/23 05:07:18;0.00;0.00;0.62;0.00;0.00;0.62;3.93;3.30;;;25.50;41.40;;;;;;2249700;61;20388;-62
2021/08/23 05:10:04;0.00;0.00;0.62;0.00;0.00;0.62;4.30;2.60;;;25.50;41.40;;;;;;2249504;61;20365;-61
2021/08/23 05:12:54;0.00;0.00;0.62;0.00;0.00;0.62;3.50;3.10;;;25.50;41.30;;;;;;2249462;61;20368;-61
2021/08/23 05:15:38;0.00;0.00;0.62;0.00;0.00;0.62;3.50;2.97;;;25.50;41.40;;;;;;2249894;61;20400;-62
2021/08/23 05:18:23;0.00;0.00;0.62;0.00;0.00;0.62;3.70;3.40;;;25.50;41.30;;;;;;2249313;61;20460;-61
2021/08/23 05:21:07;0.00;0.00;0.62;0.00;0.00;0.62;3.83;3.20;;;25.50;41.30;;;;;;2249553;61;20384;-59
2021/08/23 05:23:53;0.00;0.00;0.62;0.00;0.00;0.62;3.80;3.40;;;25.50;41.30;;;;;;2249892;61;20353;-60
2021/08/23 05:26:38;0.00;0.00;0.62;0.00;0.00;0.62;3.43;3.13;;;25.50;41.40;;;;;;2249022;61;20474;-61
2021/08/23 05:29:23;0.00;0.00;0.62;0.00;0.00;0.62;3.80;3.20;;;25.40;41.30;;;;;;2249816;61;20764;-61
2021/08/23 05:32:07;0.00;0.00;0.62;0.00;0.00;0.62;3.63;2.90;;;25.40;41.30;;;;;;2249360;61;20364;-62
2021/08/23 05:34:52;0.00;0.00;0.62;0.00;0.00;0.62;3.80;3.13;;;25.40;41.30;;;;;;2249315;61;20753;-60
2021/08/23 05:37:36;0.00;0.00;0.62;0.00;0.00;0.62;4.77;3.20;;;25.40;41.30;;;;;;2249698;61;20772;-60
2021/08/23 05:40:29;0.00;0.00;0.62;0.00;0.00;0.62;4.10;3.50;;;25.40;41.30;;;;;;2249170;61;20466;-63
2021/08/23 05:43:14;0.00;0.00;0.62;0.00;0.00;0.62;4.87;3.23;;;25.40;41.40;;;;;;2249489;61;20388;-61
2021/08/23 05:46:00;0.00;0.00;0.62;0.00;0.00;0.62;5.13;3.20;;;25.40;41.30;;;;;;2249844;61;20424;-61
2021/08/23 05:48:45;0.00;0.00;0.62;0.00;0.00;0.62;3.83;3.40;;;25.40;41.30;;;;;;2248994;61;20392;-62
2021/08/23 05:51:29;0.00;0.00;0.62;0.00;0.00;0.62;4.20;3.10;;;25.40;41.30;;;;;;2249719;61;20376;-64
2021/08/23 05:54:14;0.00;0.00;0.62;0.00;0.00;0.62;3.83;3.43;;;25.40;41.30;;;;;;2249412;61;20661;-62
2021/08/23 05:57:00;0.00;0.00;0.62;0.00;0.00;0.62;3.80;2.90;;;25.30;41.30;;;;;;2249124;61;20607;-60
2021/08/23 05:59:45;0.00;0.00;0.62;0.00;0.00;0.62;4.03;2.80;;;25.30;41.30;;;;;;2249753;61;20481;-61
2021/08/23 06:02:30;0.00;0.00;0.62;0.00;0.00;0.62;4.40;3.27;;;25.30;41.40;;;;;;2248940;61;20401;-57
2021/08/23 06:05:15;0.00;0.00;0.62;0.00;0.00;0.62;4.13;3.40;;;25.30;41.40;;;;;;2248985;61;20372;-62
2021/08/23 06:07:59;0.00;0.00;0.62;0.00;0.00;0.62;3.37;2.83;;;25.20;41.40;;;;;;2248992;61;20393;-60
2021/08/23 06:10:46;0.00;0.00;0.62;0.00;0.00;0.62;3.73;2.50;;;25.20;41.40;;;;;;2249089;61;20360;-61
2021/08/23 06:13:32;0.00;0.00;0.62;0.00;0.00;0.62;3.23;2.80;;;25.20;41.40;;;;;;2249429;61;20365;-61
2021/08/23 06:16:18;0.00;0.00;0.62;0.00;0.00;0.62;3.00;2.53;;;25.20;41.40;;;;;;2249074;61;20364;-63
2021/08/23 06:19:03;0.00;0.00;0.62;0.00;0.00;0.62;4.03;2.83;;;25.20;41.50;;;;;;2249166;61;20357;-61
2021/08/23 06:21:48;0.00;0.00;0.62;0.00;0.00;0.62;3.90;3.07;;;25.20;41.50;;;;;;2249724;61;20420;-60
2021/08/23 06:24:32;0.00;0.00;0.62;0.00;0.00;0.62;3.47;3.17;;;25.20;41.40;;;;;;2249063;61;20400;-64
2021/08/23 06:27:18;0.00;0.00;0.62;0.00;0.00;0.62;2.90;2.50;;;25.20;41.30;;;;;;2249125;61;20768;-62
2021/08/23 06:30:06;0.00;0.00;0.62;0.00;0.00;0.62;3.40;2.77;;;25.20;41.30;;;;;;2249588;61;20380;-61
2021/08/23 06:32:50;0.00;0.00;0.62;0.00;0.00;0.62;2.80;2.40;;;25.10;41.20;;;;;;2249019;61;20372;-58
2021/08/23 06:35:35;0.00;0.00;0.62;0.00;0.00;0.62;5.37;3.03;;;25.10;41.20;;;;;;2249673;61;20400;-64
2021/08/23 06:38:19;0.00;0.00;0.62;0.00;0.00;0.62;4.20;2.67;;;25.10;41.20;;;;;;2249235;61;20381;-60
2021/08/23 06:41:04;0.00;0.00;0.62;0.00;0.00;0.62;4.83;2.67;;;25.10;41.20;;;;;;2249100;61;20389;-61
2021/08/23 06:43:49;0.00;0.00;0.62;0.00;0.00;0.62;3.00;2.40;;;25.10;41.20;;;;;;2249634;61;20674;-62
2021/08/23 06:46:36;0.00;0.00;0.62;0.00;0.00;0.62;4.07;2.80;;;25.10;41.20;;;;;;2248785;61;20384;-63
2021/08/23 06:49:20;0.00;0.00;0.62;0.00;0.00;0.62;4.73;2.57;;;25.00;41.20;;;;;;2249245;61;20416;-58
2021/08/23 06:52:05;0.00;0.00;0.62;0.00;0.00;0.62;3.17;2.07;;;25.00;41.20;;;;;;2249449;61;20400;-61
2021/08/23 06:54:50;0.00;0.00;0.62;0.00;0.00;0.62;2.23;2.03;;;25.00;41.30;;;;;;2248960;61;20392;-62
2021/08/23 06:57:34;0.00;0.00;0.62;0.00;0.00;0.62;3.20;2.43;;;25.00;41.40;;;;;;2249187;61;20387;-62
2021/08/23 07:00:19;0.00;0.00;0.62;0.00;0.00;0.62;2.13;1.93;;;25.00;41.60;;;;;;2249224;61;20404;-62
2021/08/23 07:03:06;0.00;0.00;0.62;0.00;0.00;0.62;3.13;2.10;;;25.00;41.70;;;;;;2248949;61;20364;-62
2021/08/23 07:05:51;0.00;0.00;0.62;0.00;0.00;0.62;4.53;2.30;;;25.00;41.70;;;;;;2249401;61;20620;-64
2021/08/23 07:08:35;0.00;0.00;0.62;0.00;0.00;0.62;2.20;2.00;;;25.00;41.80;;;;;;2248904;61;20419;-63
2021/08/23 07:11:20;0.00;0.00;0.62;0.00;0.00;0.62;3.00;1.80;;;25.00;41.80;;;;;;2249174;61;20368;-62
2021/08/23 07:14:04;0.00;0.00;0.62;0.00;0.00;0.62;2.43;1.87;;;25.00;41.90;;;;;;2249288;61;20442;-63
2021/08/23 07:16:51;0.00;0.00;0.62;0.00;0.00;0.62;2.50;2.10;;;25.00;41.80;;;;;;2248657;61;20365;-63
2021/08/23 07:19:37;0.00;0.00;0.62;0.00;0.00;0.62;2.10;1.80;;;25.00;41.90;;;;;;2249042;61;20361;-66
2021/08/23 07:22:23;0.00;0.00;0.62;0.00;0.00;0.62;2.50;1.67;;;25.00;42.00;;;;;;2249429;61;20628;-60
2021/08/23 07:25:09;0.00;0.00;0.62;0.00;0.00;0.62;2.47;2.00;;;25.00;42.10;;;;;;2248919;61;20392;-61
2021/08/23 07:27:53;0.00;0.00;0.62;0.00;0.00;0.62;2.30;1.83;;;25.10;42.20;;;;;;2248844;61;20439;-63
2021/08/23 07:30:38;0.00;0.00;0.62;0.00;0.00;0.62;2.57;2.00;;;25.10;42.20;;;;;;2249157;61;20377;-63
2021/08/23 07:33:23;0.00;0.00;0.62;0.00;0.00;0.62;2.77;2.30;;;25.10;42.20;;;;;;2249170;61;20396;-61
2021/08/23 07:36:08;0.00;0.00;0.62;0.00;0.00;0.62;2.20;1.80;;;25.10;42.10;;;;;;2249369;61;20644;-63
2021/08/23 07:38:53;0.00;0.00;0.62;0.00;0.00;0.62;2.13;1.93;;;25.20;42.20;;;;;;2248861;61;20381;-63
2021/08/23 07:41:37;0.00;0.00;0.62;0.00;0.00;0.62;3.70;1.90;;;25.20;42.10;;;;;;2249127;61;20356;-63
2021/08/23 07:44:22;0.00;0.00;0.62;0.00;0.00;0.62;3.90;1.70;;;25.20;42.10;;;;;;2249453;61;20748;-62
2021/08/23 07:47:07;0.00;0.00;0.62;0.00;0.00;0.62;2.47;1.80;;;25.20;42.00;;;;;;2248956;61;20878;-63
2021/08/23 07:49:51;0.00;0.00;0.62;0.00;0.00;0.62;2.30;2.00;;;25.20;42.10;;;;;;2249205;61;20392;-63
2021/08/23 07:52:38;0.00;0.00;0.62;0.00;0.00;0.62;2.13;1.60;;;25.30;42.10;;;;;;2249041;61;20568;-64
2021/08/23 07:55:23;0.00;0.00;0.62;0.00;0.00;0.62;2.30;1.80;;;25.30;42.20;;;;;;2248804;61;20357;-65
2021/08/23 07:58:07;0.00;0.00;0.62;0.00;0.00;0.62;2.50;1.60;;;25.30;42.10;;;;;;2250057;61;20812;-62
2021/08/23 08:00:52;0.00;0.00;0.62;0.00;0.00;0.62;1.70;1.40;;;25.30;42.10;;;;;;2249733;61;20408;-64
2021/08/23 08:03:37;0.00;0.00;0.62;0.00;0.00;0.62;2.53;1.53;;;25.30;42.00;;;;;;2249626;61;20453;-62
2021/08/23 08:06:22;0.00;0.00;0.62;0.00;0.00;0.62;1.63;1.43;;;25.40;42.10;;;;;;2249540;61;20360;-61
2021/08/23 08:09:08;0.00;0.00;0.62;0.00;0.00;0.62;4.57;2.03;;;25.40;42.10;;;;;;2249440;61;20810;-60
2021/08/23 08:11:54;0.00;0.00;0.62;0.00;0.00;0.62;2.37;1.60;;;25.40;42.10;;;;;;2249780;61;20415;-65
2021/08/23 08:14:41;0.00;0.00;0.62;0.00;0.00;0.62;3.10;1.90;;;25.40;42.10;;;;;;2249733;61;20411;-64
2021/08/23 08:17:26;0.00;0.00;0.62;0.00;0.00;0.62;1.60;1.43;;;25.50;42.20;;;;;;2249321;61;20380;-63
2021/08/23 08:20:12;0.00;0.00;0.62;0.00;0.00;0.62;1.90;1.40;;;25.50;42.10;;;;;;2250013;61;20364;-63
2021/08/23 08:22:57;0.00;0.00;0.62;0.00;0.00;0.62;2.30;1.50;;;25.50;42.10;;;;;;2249433;61;20504;-64
2021/08/23 08:25:42;0.00;0.00;0.62;0.00;0.00;0.62;2.47;1.83;;;25.60;42.10;;;;;;2249523;61;20393;-62
2021/08/23 08:28:27;0.00;0.00;0.62;0.00;0.00;0.62;2.40;1.70;;;25.60;42.10;;;;;;2249927;61;20508;-61
2021/08/23 08:31:12;0.00;0.00;0.62;0.00;0.00;0.62;3.80;1.60;;;25.60;42.00;;;;;;2249313;61;20368;-60
2021/08/23 08:33:56;0.00;0.00;0.62;0.00;0.00;0.62;1.80;1.30;;;25.60;42.00;;;;;;2249971;61;20368;-65
2021/08/23 08:36:42;0.00;0.00;0.62;0.00;0.00;0.62;2.67;1.97;;;25.70;42.10;;;;;;2249599;61;20364;-62
2021/08/23 08:39:27;0.00;0.00;0.62;0.00;0.00;0.62;2.03;1.60;;;25.70;42.10;;;;;;2249288;61;20701;-59
2021/08/23 08:42:14;0.00;0.00;0.62;0.00;0.00;0.62;3.53;1.63;;;25.70;42.00;;;;;;2249536;61;20381;-56
2021/08/23 08:44:59;0.00;0.00;0.62;0.00;0.00;0.62;2.97;1.83;;;25.70;41.90;;;;;;2249379;61;20405;-58
2021/08/23 08:47:45;0.00;0.00;0.62;0.00;0.00;0.62;1.90;1.27;;;25.80;42.00;;;;;;2249190;61;20461;-62
2021/08/23 08:50:30;0.00;0.00;0.62;0.00;0.00;0.62;1.60;1.47;;;25.80;42.00;;;;;;2249908;61;20575;-61
2021/08/23 08:53:15;0.00;0.00;0.62;0.00;0.00;0.62;2.33;1.20;;;25.80;41.90;;;;;;2249183;61;20364;-62
2021/08/23 08:55:59;0.00;0.00;0.62;0.00;0.00;0.62;2.73;1.40;;;25.80;41.90;;;;;;2249458;61;20578;-62
2021/08/23 08:58:45;0.00;0.00;0.62;0.00;0.00;0.62;2.93;1.80;;;25.80;41.80;;;;;;2249572;61;20421;-63
2021/08/23 09:01:30;0.00;0.00;0.62;0.00;0.00;0.62;2.10;1.70;;;25.90;41.80;;;;;;2249151;61;20372;-64
2021/08/23 09:04:14;0.00;0.00;0.62;0.00;0.00;0.62;1.97;1.63;;;25.90;41.70;;;;;;2249892;61;20500;-60
2021/08/23 09:06:59;0.00;0.00;0.62;0.00;0.00;0.62;3.23;1.80;;;25.90;41.60;;;;;;2248957;61;20443;-64
2021/08/23 09:09:46;0.00;0.00;0.62;0.00;0.00;0.62;2.80;1.90;;;25.90;41.70;;;;;;2249349;61;20427;-61
2021/08/23 09:12:30;0.00;0.00;0.62;0.00;0.00;0.62;2.50;2.27;;;26.00;41.70;;;;;;2249952;61;20352;-60
2021/08/23 09:15:17;0.00;0.00;0.62;0.00;0.00;0.62;3.10;2.50;;;26.00;41.60;;;;;;2249126;61;20368;-59
2021/08/23 09:18:08;0.00;0.00;0.62;0.00;0.00;0.62;2.70;2.40;;;26.00;41.60;;;;;;2249471;61;20456;-60
2021/08/23 09:20:59;0.00;0.00;0.62;0.00;0.00;0.62;2.70;2.10;;;26.00;41.50;;;;;;2249599;61;20357;-61
2021/08/23 09:23:48;0.00;0.00;0.62;0.00;0.00;0.62;3.27;2.90;;;26.00;42.10;;;;;;2249270;61;20401;-61
2021/08/23 09:26:35;0.00;0.00;0.62;0.00;0.00;0.62;2.90;2.60;;;26.00;41.40;;;;;;2249341;61;20384;-61
2021/08/23 09:29:19;0.00;0.00;0.62;0.00;0.00;0.62;4.27;2.70;;;26.00;41.30;;;;;;2248986;61;20388;-61
2021/08/23 09:32:06;0.00;0.00;0.62;0.00;0.00;0.62;3.47;2.80;;;26.00;41.30;;;;;;2249351;61;20377;-60
2021/08/23 09:34:51;0.00;0.00;0.62;0.00;0.00;0.62;3.30;2.50;;;26.00;41.20;;;;;;2249685;61;20369;-61
2021/08/23 09:37:36;0.00;0.00;0.62;0.00;0.00;0.62;4.17;2.87;;;26.00;41.20;;;;;;2248658;61;20380;-61
2021/08/23 09:40:27;0.00;0.00;0.62;0.00;0.00;0.62;2.97;2.67;;;26.00;41.20;;;;;;2249509;61;20404;-58
2021/08/23 09:43:15;0.00;0.00;0.62;0.00;0.00;0.62;4.20;2.63;;;26.00;41.20;;;;;;2249360;61;20416;-61
2021/08/23 09:46:10;0.00;0.00;0.62;0.00;0.00;0.62;3.60;2.83;;;26.00;41.10;;;;;;2249010;61;20369;-61
2021/08/23 09:48:58;0.00;0.00;0.62;0.00;0.00;0.62;3.53;2.90;;;26.00;41.10;;;;;;2249605;61;20392;-61
2021/08/23 09:51:46;0.00;0.00;0.62;0.00;0.00;0.62;5.17;3.00;;;25.90;41.00;;;;;;2249047;61;20744;-59
2021/08/23 09:54:32;0.00;0.00;0.62;0.00;0.00;0.62;3.80;2.93;;;25.90;41.00;;;;;;2249275;61;20364;-61
2021/08/23 09:57:17;0.00;0.00;0.62;0.00;0.00;0.62;4.17;2.70;;;25.90;41.00;;;;;;2249559;61;20424;-60
2021/08/23 10:00:03;0.00;0.00;0.62;0.00;0.00;0.62;3.80;2.83;;;25.90;40.90;;;;;;2249156;61;20424;-61
2021/08/23 10:03:01;0.00;0.00;0.62;0.00;0.00;0.62;3.50;3.00;;;25.90;40.90;;;;;;2249240;61;20582;-62
2021/08/23 10:05:49;0.00;0.00;0.62;0.00;0.00;0.62;3.30;2.77;;;25.90;40.90;;;;;;2249361;61;20429;-60
2021/08/23 10:08:34;0.00;0.00;0.62;0.00;0.00;0.62;3.83;2.50;;;25.90;41.00;;;;;;2249085;61;20388;-60
2021/08/23 10:11:20;0.00;0.00;0.62;0.00;0.00;0.62;2.43;2.23;;;25.90;41.00;;;;;;2249653;61;20377;-60
2021/08/23 10:14:05;0.00;0.00;0.62;0.00;0.00;0.62;2.80;2.50;;;25.90;41.00;;;;;;2248967;61;20365;-61
2021/08/23 10:16:51;0.00;0.00;0.62;0.00;0.00;0.62;2.77;2.57;;;25.90;40.90;;;;;;2249100;61;20380;-61
2021/08/23 10:19:36;0.00;0.00;0.62;0.00;0.00;0.62;3.50;2.77;;;25.90;40.70;;;;;;2249349;61;20361;-59
2021/08/23 10:22:22;0.00;0.00;0.62;0.00;0.00;0.62;3.80;2.90;;;25.90;40.50;;;;;;2249016;61;20469;-60
2021/08/23 10:25:09;0.00;0.00;0.62;0.00;0.00;0.62;3.40;3.10;;;25.90;40.50;;;;;;2249600;61;20728;-61
2021/08/23 10:28:05;0.00;0.00;0.62;0.00;0.00;0.62;6.70;2.80;;;25.90;40.50;;;;;;2249062;61;20376;-61
2021/08/23 10:30:50;0.00;0.00;0.62;0.00;0.00;0.62;4.10;2.80;;;25.90;40.50;;;;;;2249225;61;20629;-60
2021/08/23 10:33:37;0.00;0.00;0.62;0.00;0.00;0.62;3.53;2.53;;;25.90;40.50;;;;;;2249472;61;20357;-61
2021/08/23 10:36:21;0.00;0.00;0.62;0.00;0.00;0.62;4.27;2.70;;;25.90;40.50;;;;;;2248952;61;20368;-61
2021/08/23 10:39:07;0.00;0.00;0.62;0.00;0.00;0.62;3.63;2.57;;;25.90;40.30;;;;;;2248866;61;20408;-60
2021/08/23 10:41:54;0.00;0.00;0.62;0.00;0.00;0.62;3.03;2.53;;;25.80;40.00;;;;;;2249634;61;20728;-61
2021/08/23 10:44:38;0.00;0.00;0.62;0.00;0.00;0.62;3.10;2.70;;;25.80;40.00;;;;;;2249029;61;20436;-59
2021/08/23 10:47:30;0.00;0.00;0.62;0.00;0.00;0.62;4.80;2.07;;;25.80;39.90;;;;;;2249407;61;20432;-59
2021/08/23 10:50:23;0.00;0.00;0.62;0.00;0.00;0.62;2.47;2.23;;;25.80;39.80;;;;;;2249163;61;20433;-61
2021/08/23 10:53:14;0.00;0.00;0.62;0.00;0.00;0.62;2.20;1.90;;;25.80;39.80;;;;;;2249230;61;20361;-61